Time;durP1;ratioP1;P1;durP2;ratioP2;P2;SDS_P1;SDS_P2;PMS_P1;PMS_P2;Temp;Humidity;BMP_temperature;BMP_pressure;BME280_temperature;BME280_humidity;BME280_pressure;Samples;Min_cycle;Max_cycle;Signal;HPM_P1;HPM_P2
2021/10/11 00:00:47;;;;;;;12.27;9.73;;;;;;;4.80;64.00;100902.69;10389520;28;20049;-63
2021/10/11 00:05:48;;;;;;;12.20;9.32;;;;;;;4.80;63.96;100905.28;10390666;28;20056;-63
2021/10/11 00:10:51;;;;;;;14.00;10.00;;;;;;;4.67;64.39;100915.91;10390145;28;20160;-63
2021/10/11 00:15:53;;;;;;;13.93;9.60;;;;;;;4.65;64.82;100902.13;10389228;28;20135;-64
2021/10/11 00:20:55;;;;;;;13.43;9.88;;;;;;;4.80;64.28;100900.94;10389462;28;20045;-64
2021/10/11 00:25:56;;;;;;;14.48;10.02;;;;;;;4.80;64.14;100894.91;10389628;28;20045;-63
2021/10/11 00:30:58;;;;;;;13.90;10.25;;;;;;;4.79;64.00;100888.00;10388407;28;20046;-63
2021/10/11 00:36:00;;;;;;;52.75;11.65;;;;;;;4.78;64.18;100884.56;10388874;28;20050;-63
2021/10/11 00:41:02;;;;;;;64.55;11.38;;;;;;;4.84;64.07;100875.81;10389157;28;20041;-64
2021/10/11 00:46:03;;;;;;;27.38;10.43;;;;;;;4.74;64.19;100882.09;10388509;28;20063;-64
2021/10/11 00:51:05;;;;;;;19.30;10.07;;;;;;;4.74;64.08;100879.50;10388261;28;20045;-64
2021/10/11 00:56:07;;;;;;;112.45;13.18;;;;;;;4.71;63.71;100872.63;10388327;28;20059;-64
2021/10/11 01:01:09;;;;;;;146.30;13.00;;;;;;;4.53;64.59;100867.84;10387983;28;20544;-64
2021/10/11 01:06:11;;;;;;;78.25;12.30;;;;;;;4.65;64.25;100863.25;10387324;28;20053;-63
2021/10/11 01:11:12;;;;;;;42.03;10.68;;;;;;;4.66;64.28;100870.13;10387563;28;20056;-64
2021/10/11 01:16:14;;;;;;;60.42;10.73;;;;;;;4.61;64.12;100868.53;10387899;28;20751;-64
2021/10/11 01:21:16;;;;;;;55.72;10.85;;;;;;;4.58;64.09;100874.63;10387054;28;20049;-64
2021/10/11 01:26:18;;;;;;;51.63;11.73;;;;;;;4.52;64.39;100885.09;10387017;28;20049;-64
2021/10/11 01:31:19;;;;;;;92.10;12.32;;;;;;;4.61;64.13;100877.16;10385886;28;20131;-64
2021/10/11 01:36:21;;;;;;;12.57;8.55;;;;;;;4.64;64.05;100871.91;10387114;28;20053;-63
2021/10/11 01:41:23;;;;;;;47.35;10.93;;;;;;;4.61;63.88;100864.22;10386646;28;20055;-64
2021/10/11 01:46:25;;;;;;;50.45;11.40;;;;;;;4.60;64.13;100866.81;10385902;28;20049;-64
2021/10/11 01:51:27;;;;;;;25.40;10.02;;;;;;;4.64;64.07;100869.31;10386628;28;20053;-64
2021/10/11 01:56:28;;;;;;;26.48;10.68;;;;;;;4.63;63.79;100865.03;10386378;28;20053;-64
2021/10/11 02:01:30;;;;;;;76.20;11.25;;;;;;;4.49;64.34;100869.66;10387496;28;20168;-64
2021/10/11 02:06:32;;;;;;;78.50;11.38;;;;;;;4.49;64.45;100866.19;10393015;28;20406;-64
2021/10/11 02:11:34;;;;;;;32.65;10.18;;;;;;;4.56;64.53;100865.16;10392622;28;20057;-64
2021/10/11 02:16:36;;;;;;;66.97;11.32;;;;;;;4.59;64.38;100875.47;10392103;28;20061;-64
2021/10/11 02:21:37;;;;;;;34.53;9.70;;;;;;;4.76;64.07;100867.38;10392510;28;20049;-64
2021/10/11 02:26:39;;;;;;;20.40;9.95;;;;;;;4.88;64.27;100859.31;10392791;28;20391;-64
2021/10/11 02:31:41;;;;;;;87.13;12.73;;;;;;;4.82;64.02;100864.66;10391970;28;20053;-64
2021/10/11 02:36:43;;;;;;;15.35;10.43;;;;;;;4.68;64.60;100872.69;10389736;28;20045;-63
2021/10/11 02:41:44;;;;;;;16.77;9.40;;;;;;;4.85;64.27;100862.81;10391719;28;20144;-64
2021/10/11 02:46:46;;;;;;;13.27;8.90;;;;;;;4.85;63.96;100859.38;10391734;28;20056;-64
2021/10/11 02:51:48;;;;;;;12.38;8.93;;;;;;;4.95;64.11;100845.31;10391886;28;20068;-64
2021/10/11 02:56:49;;;;;;;12.45;8.80;;;;;;;4.87;64.01;100844.66;10395993;28;20053;-64
2021/10/11 03:01:51;;;;;;;11.48;8.82;;;;;;;5.01;64.26;100832.22;10398560;28;20058;-63
2021/10/11 03:06:53;;;;;;;11.25;8.75;;;;;;;5.11;63.55;100841.50;10395145;28;20398;-64
2021/10/11 03:11:54;;;;;;;12.70;8.35;;;;;;;5.09;63.90;100825.97;10392566;28;20050;-64
2021/10/11 03:16:56;;;;;;;12.18;8.43;;;;;;;5.19;63.81;100834.38;10392835;28;20061;-63
2021/10/11 03:21:58;;;;;;;10.55;8.50;;;;;;;5.28;63.33;100835.03;10391271;28;20417;-64
2021/10/11 03:27:00;;;;;;;11.25;7.88;;;;;;;5.32;63.19;100820.25;10391757;28;20046;-64
2021/10/11 03:32:02;;;;;;;10.73;7.75;;;;;;;5.17;63.35;100808.50;10392383;28;20405;-64
2021/10/11 03:37:04;;;;;;;10.75;8.30;;;;;;;4.98;63.34;100804.66;10392355;28;20059;-64
2021/10/11 03:42:05;;;;;;;11.05;8.50;;;;;;;4.72;63.63;100805.22;10391828;28;20637;-64
2021/10/11 03:47:07;;;;;;;10.38;8.38;;;;;;;4.55;63.96;100807.34;10391052;28;20461;-64
2021/10/11 03:52:09;;;;;;;12.30;9.25;;;;;;;4.69;63.89;100809.63;10391362;28;20049;-64
2021/10/11 03:57:11;;;;;;;10.52;8.20;;;;;;;4.82;63.57;100815.41;10391097;28;20089;-63
2021/10/11 04:02:12;;;;;;;12.07;8.48;;;;;;;4.78;63.64;100814.59;10389945;28;20053;-64
2021/10/11 04:07:16;;;;;;;13.43;8.80;;;;;;;4.82;63.63;100810.22;10390898;28;20383;-64
2021/10/11 04:12:20;;;;;;;11.43;8.82;;;;;;;4.83;63.80;100814.50;10390358;28;20058;-64
2021/10/11 04:17:22;;;;;;;13.13;10.13;;;;;;;4.79;64.29;100816.31;10390231;28;20045;-64
2021/10/11 04:22:23;;;;;;;14.85;10.52;;;;;;;4.95;64.04;100822.00;10389316;28;20859;-64
2021/10/11 04:27:25;;;;;;;11.65;8.90;;;;;;;4.99;64.15;100821.03;10390255;28;20053;-64
2021/10/11 04:32:27;;;;;;;11.55;9.27;;;;;;;5.07;64.08;100812.22;10389948;28;20053;-63
2021/10/11 04:37:28;;;;;;;14.13;9.98;;;;;;;5.10;64.07;100814.75;10388862;28;20543;-64
2021/10/11 04:42:30;;;;;;;11.35;8.80;;;;;;;5.20;64.12;100813.63;10389427;28;20049;-64
2021/10/11 04:47:32;;;;;;;13.27;10.35;;;;;;;5.22;63.93;100816.19;10389487;28;20049;-63
2021/10/11 04:52:34;;;;;;;11.93;9.43;;;;;;;5.34;64.08;100810.69;10389788;28;20051;-63
2021/10/11 04:57:36;;;;;;;11.02;8.95;;;;;;;5.50;63.57;100807.69;10388791;28;20095;-64
2021/10/11 05:02:38;;;;;;;11.52;9.25;;;;;;;5.48;63.62;100799.09;10388819;28;20053;-63
2021/10/11 05:07:39;;;;;;;12.70;10.13;;;;;;;5.45;63.90;100795.72;10387594;28;20450;-64
2021/10/11 05:12:41;;;;;;;14.02;10.10;;;;;;;5.37;64.25;100789.88;10388047;28;20143;-63
2021/10/11 05:17:43;;;;;;;13.18;10.30;;;;;;;5.49;63.94;100798.19;10387447;28;20144;-64
2021/10/11 05:22:45;;;;;;;15.55;11.07;;;;;;;5.57;63.87;100795.41;10387940;28;20056;-63
2021/10/11 05:27:47;;;;;;;17.88;12.57;;;;;;;5.56;63.84;100780.72;10388384;28;20053;-64
2021/10/11 05:32:48;;;;;;;22.17;12.93;;;;;;;5.67;63.65;100783.91;10387467;28;20049;-63
2021/10/11 05:37:50;;;;;;;14.43;11.68;;;;;;;5.70;63.73;100789.00;10387035;28;20053;-63
2021/10/11 05:42:52;;;;;;;14.02;10.35;;;;;;;5.75;63.81;100789.75;10387419;28;20053;-63
2021/10/11 05:47:54;;;;;;;15.13;11.10;;;;;;;5.89;63.74;100794.56;10386042;28;20049;-64
2021/10/11 05:52:56;;;;;;;14.52;9.65;;;;;;;5.79;63.68;100799.16;10387399;28;20049;-64
2021/10/11 05:57:58;;;;;;;15.98;10.88;;;;;;;5.96;63.64;100796.94;10387459;28;20057;-63
2021/10/11 06:02:59;;;;;;;15.70;12.13;;;;;;;5.91;63.92;100805.75;10386244;28;20454;-63
2021/10/11 06:08:01;;;;;;;18.90;13.43;;;;;;;5.94;64.03;100813.47;10387179;28;20049;-63
2021/10/11 06:13:03;;;;;;;13.80;10.38;;;;;;;5.96;63.73;100812.53;10384810;28;20524;-64
2021/10/11 06:18:05;;;;;;;19.60;13.98;;;;;;;6.16;63.73;100824.97;10385723;28;20057;-63
2021/10/11 06:23:07;;;;;;;17.17;12.40;;;;;;;5.96;64.00;100827.28;10383679;28;20049;-64
2021/10/11 06:28:09;;;;;;;17.58;12.38;;;;;;;6.11;63.85;100832.88;10385666;28;20055;-63
2021/10/11 06:33:14;;;;;;;17.95;12.82;;;;;;;6.21;63.74;100826.53;10384427;28;20053;-64
2021/10/11 06:38:16;;;;;;;14.52;11.60;;;;;;;6.32;63.76;100832.34;10383671;28;20059;-63
2021/10/11 06:43:18;;;;;;;14.57;11.30;;;;;;;6.39;63.43;100843.38;10384468;28;20053;-64
2021/10/11 06:48:20;;;;;;;18.02;12.18;;;;;;;6.52;63.23;100849.94;10384960;28;20089;-64
2021/10/11 06:53:22;;;;;;;19.45;13.45;;;;;;;6.55;63.32;100862.00;10384771;28;20060;-64
2021/10/11 06:58:24;;;;;;;20.23;15.38;;;;;;;6.51;63.48;100850.84;10384857;28;20057;-63
2021/10/11 07:03:26;;;;;;;20.02;13.27;;;;;;;6.62;63.55;100856.59;10385081;28;20057;-63
2021/10/11 07:08:27;;;;;;;21.02;13.52;;;;;;;6.65;63.82;100858.25;10384537;28;20050;-63
2021/10/11 07:13:29;;;;;;;19.25;14.13;;;;;;;6.62;64.04;100866.13;10375891;28;20053;-63
2021/10/11 07:18:35;;;;;;;25.02;13.02;;;;;;;6.77;63.86;100856.16;10382992;28;20061;-63
2021/10/11 07:23:37;;;;;;;17.13;12.70;;;;;;;6.87;63.84;100851.53;10384980;28;20421;-63
2021/10/11 07:28:39;;;;;;;20.27;13.75;;;;;;;6.98;64.03;100852.03;10382247;28;20060;-64
2021/10/11 07:33:41;;;;;;;18.27;13.18;;;;;;;7.01;63.95;100859.75;10380319;28;20047;-63
2021/10/11 07:38:42;;;;;;;19.58;13.43;;;;;;;7.11;64.17;100859.44;10380199;28;20063;-64
2021/10/11 07:43:44;;;;;;;21.58;14.50;;;;;;;7.19;64.29;100861.78;10382778;28;20076;-63
2021/10/11 07:48:46;;;;;;;34.58;21.13;;;;;;;7.36;64.47;100862.13;10384725;28;20049;-64
2021/10/11 07:53:47;;;;;;;29.65;19.80;;;;;;;7.54;64.55;100871.94;10386774;28;20315;-64
2021/10/11 07:58:49;;;;;;;28.60;19.00;;;;;;;7.67;64.47;100875.81;10389982;28;20053;-64
2021/10/11 08:03:51;;;;;;;26.48;18.58;;;;;;;7.86;64.40;100871.72;10388494;28;20053;-64
2021/10/11 08:08:52;;;;;;;45.20;26.90;;;;;;;8.01;64.24;100881.63;10386260;28;20401;-64
2021/10/11 08:13:54;;;;;;;43.65;26.98;;;;;;;8.17;64.20;100884.59;10384780;28;20049;-64
2021/10/11 08:18:56;;;;;;;52.50;30.60;;;;;;;8.21;64.61;100886.19;10388341;28;20556;-64
2021/10/11 08:23:59;;;;;;;43.33;26.50;;;;;;;8.36;64.71;100879.56;10387660;28;20413;-75
2021/10/11 08:29:02;;;;;;;57.80;33.90;;;;;;;8.67;64.75;100867.97;10386944;28;20050;-76
2021/10/11 08:34:05;;;;;;;59.90;31.58;;;;;;;8.98;64.45;100856.38;10390091;28;20401;-75
2021/10/11 08:39:07;;;;;;;53.35;29.05;;;;;;;9.02;64.54;100866.63;10390027;28;20111;-76
2021/10/11 08:44:11;;;;;;;46.67;27.60;;;;;;;8.94;65.40;100866.09;10390391;28;20053;-75
2021/10/11 08:49:13;;;;;;;58.40;38.40;;;;;;;9.17;65.96;100880.84;10388754;28;20395;-75
2021/10/11 08:54:15;;;;;;;55.13;32.88;;;;;;;9.52;65.69;100886.38;10388435;28;20045;-75
2021/10/11 08:59:28;;;;;;;54.05;33.00;;;;;;;9.81;65.44;100882.59;10387440;28;20079;-74
2021/10/11 09:04:30;;;;;;;52.70;31.85;;;;;;;10.02;64.99;100879.09;10388649;28;20132;-75
2021/10/11 09:09:46;;;;;;;48.78;31.45;;;;;;;10.17;65.26;100883.69;10388788;28;20535;-76
2021/10/11 09:15:09;;;;;;;47.50;29.92;;;;;;;10.39;64.97;100889.69;10388884;28;20461;-75
2021/10/11 09:20:23;;;;;;;44.17;29.30;;;;;;;10.60;65.11;100889.66;10387781;28;20883;-74
2021/10/11 09:25:38;;;;;;;46.50;28.65;;;;;;;10.82;65.05;100877.28;10378675;28;20051;-74
2021/10/11 09:30:41;;;;;;;48.75;27.67;;;;;;;11.10;64.60;100877.75;10385094;28;20567;-73
2021/10/11 09:35:44;;;;;;;53.80;29.98;;;;;;;11.06;64.69;100876.19;10385659;28;20045;-74
2021/10/11 09:40:47;;;;;;;49.53;28.73;;;;;;;11.23;64.51;100876.25;10385234;28;20533;-73
2021/10/11 09:45:51;;;;;;;49.72;28.85;;;;;;;11.63;64.00;100869.91;10386069;28;20128;-73
2021/10/11 09:50:52;;;;;;;42.70;26.25;;;;;;;12.04;63.38;100860.84;10385949;28;20355;-69
2021/10/11 09:55:54;;;;;;;43.42;24.40;;;;;;;12.48;62.35;100846.28;10384091;28;20058;-71
2021/10/11 10:00:56;;;;;;;33.50;23.20;;;;;;;12.74;61.66;100840.47;10377377;28;20053;-67
2021/10/11 10:05:59;;;;;;;33.47;22.45;;;;;;;13.08;61.49;100834.25;10383701;28;20453;-67
2021/10/11 10:11:02;;;;;;;31.98;22.48;;;;;;;13.35;60.66;100831.84;10385710;28;20051;-67
2021/10/11 10:16:08;;;;;;;29.90;20.92;;;;;;;13.55;60.42;100818.44;10384392;28;20203;-68
2021/10/11 10:21:11;;;;;;;26.13;19.58;;;;;;;13.54;60.06;100828.09;10384920;28;20061;-68
2021/10/11 10:26:13;;;;;;;29.27;20.00;;;;;;;13.71;60.07;100840.28;10386856;28;20059;-67
2021/10/11 10:31:31;;;;;;;27.80;18.85;;;;;;;13.65;59.78;100836.22;10384455;28;20053;-68
2021/10/11 10:36:32;;;;;;;28.20;19.58;;;;;;;13.78;60.07;100842.44;10385370;28;20085;-67
2021/10/11 10:41:36;;;;;;;23.35;15.00;;;;;;;13.99;59.39;100824.56;10384505;28;20100;-68
2021/10/11 10:46:50;;;;;;;21.45;15.25;;;;;;;14.20;58.46;100833.81;10385600;28;20041;-68
2021/10/11 10:51:52;;;;;;;21.10;14.77;;;;;;;14.41;58.57;100837.75;10385436;28;20054;-68
2021/10/11 10:56:53;;;;;;;20.92;14.07;;;;;;;14.69;58.00;100820.28;10383870;28;20061;-68
2021/10/11 11:02:07;;;;;;;22.98;14.48;;;;;;;14.60;57.84;100805.91;10385622;28;20149;-68
2021/10/11 11:07:19;;;;;;;16.67;10.15;;;;;;;14.66;56.89;100820.47;10384637;28;20099;-68
2021/10/11 11:12:37;;;;;;;16.45;9.13;;;;;;;14.74;55.10;100828.72;10384768;28;20164;-67
2021/10/11 11:17:43;;;;;;;14.38;8.68;;;;;;;14.76;54.56;100806.63;10388482;28;20059;-68
2021/10/11 11:22:45;;;;;;;15.07;9.15;;;;;;;14.75;54.41;100809.38;10393213;28;20053;-67
2021/10/11 11:27:46;;;;;;;12.25;7.97;;;;;;;14.57;53.63;100801.66;10393445;28;20046;-68
2021/10/11 11:32:50;;;;;;;11.68;6.80;;;;;;;14.35;53.27;100809.16;10392803;28;20060;-68
2021/10/11 11:37:55;;;;;;;11.93;6.63;;;;;;;14.23;53.24;100809.91;10391975;28;20211;-67
2021/10/11 11:42:58;;;;;;;11.77;5.85;;;;;;;14.14;53.23;100815.75;10392380;28;20061;-67
2021/10/11 11:48:11;;;;;;;11.32;6.15;;;;;;;14.09;52.76;100809.06;10391981;28;20045;-67
2021/10/11 11:53:15;;;;;;;13.20;5.85;;;;;;;14.12;52.98;100808.88;10391862;28;20053;-67
2021/10/11 11:58:31;;;;;;;11.45;5.80;;;;;;;14.15;52.60;100809.53;10391270;28;20057;-67
2021/10/11 12:03:36;;;;;;;10.75;4.78;;;;;;;14.28;51.85;100802.59;10391455;28;20060;-68
2021/10/11 12:08:44;;;;;;;8.95;4.32;;;;;;;14.38;51.29;100805.50;10391463;28;20457;-67
2021/10/11 12:13:46;;;;;;;10.55;4.18;;;;;;;14.34;51.01;100804.84;10391156;28;20061;-68
2021/10/11 12:18:53;;;;;;;13.07;4.97;;;;;;;14.47;51.12;100808.41;10391187;28;20053;-67
2021/10/11 12:24:05;;;;;;;12.10;4.60;;;;;;;14.54;50.08;100796.59;10390424;28;20049;-67
2021/10/11 12:29:13;;;;;;;10.13;4.57;;;;;;;14.48;50.18;100796.97;10389095;28;20053;-68
2021/10/11 12:34:14;;;;;;;13.38;5.15;;;;;;;14.61;49.82;100785.69;10388801;28;20494;-67
2021/10/11 12:39:18;;;;;;;12.35;5.00;;;;;;;14.91;49.14;100771.41;10388264;28;20421;-67
2021/10/11 12:44:31;;;;;;;11.45;4.13;;;;;;;14.93;48.28;100782.72;10390568;28;20454;-67
2021/10/11 12:49:38;;;;;;;11.57;4.88;;;;;;;14.79;47.19;100784.53;10389685;28;20049;-68
2021/10/11 12:54:40;;;;;;;12.90;4.65;;;;;;;14.80;47.93;100775.69;10389707;28;20042;-67
2021/10/11 12:59:42;;;;;;;10.90;4.85;;;;;;;14.96;47.68;100771.13;10388077;28;20045;-67
2021/10/11 13:04:43;;;;;;;11.48;4.70;;;;;;;15.02;47.29;100763.66;10389658;28;20320;-67
2021/10/11 13:09:45;;;;;;;13.02;4.50;;;;;;;14.96;47.40;100769.31;10389567;28;20079;-67
2021/10/11 13:14:47;;;;;;;14.25;4.70;;;;;;;15.18;46.96;100767.00;10388477;28;20538;-68
2021/10/11 13:19:49;;;;;;;12.65;4.70;;;;;;;15.31;46.81;100772.28;10387632;28;20053;-68
2021/10/11 13:24:51;;;;;;;10.98;4.38;;;;;;;15.30;46.67;100781.16;10388538;28;20065;-67
2021/10/11 14:28:14;;;;;;;11.15;3.20;;;;;;;13.66;51.10;100779.22;10385670;28;20060;-67
2021/10/11 16:03:58;;;;;;;10.13;2.70;;;;;;;12.44;55.45;100731.09;10387521;28;20132;-68
2021/10/11 16:08:59;;;;;;;6.75;2.10;;;;;;;12.37;55.58;100729.75;10390977;28;20133;-68
2021/10/11 16:14:01;;;;;;;18.83;2.58;;;;;;;12.28;55.93;100728.47;10390404;28;20055;-68
2021/10/11 16:19:04;;;;;;;11.02;3.05;;;;;;;12.20;55.91;100737.63;10390530;28;20049;-69
2021/10/11 16:24:06;;;;;;;10.32;2.60;;;;;;;12.06;56.15;100741.00;10390400;28;20527;-68
2021/10/11 16:29:08;;;;;;;10.40;2.40;;;;;;;11.91;56.72;100747.03;10390085;28;20905;-68
2021/10/11 16:34:09;;;;;;;7.50;2.35;;;;;;;11.77;56.93;100755.63;10390749;28;20080;-69
2021/10/11 16:39:12;;;;;;;14.90;3.38;;;;;;;11.62;57.27;100755.56;10389435;28;20053;-68
2021/10/11 16:44:13;;;;;;;13.25;2.80;;;;;;;11.45;57.62;100752.94;10390247;28;20041;-69
2021/10/11 16:49:15;;;;;;;12.15;3.13;;;;;;;11.32;57.92;100748.34;10389824;28;20045;-68
2021/10/11 16:54:18;;;;;;;15.27;4.55;;;;;;;11.20;58.29;100743.69;10389233;28;20038;-68
2021/10/11 16:59:20;;;;;;;9.52;3.80;;;;;;;11.05;58.65;100760.16;10389216;28;20049;-69
2021/10/11 17:04:21;;;;;;;12.73;3.05;;;;;;;10.91;59.18;100762.56;10388315;28;20053;-68
2021/10/11 17:09:24;;;;;;;10.75;3.08;;;;;;;10.82;59.72;100768.25;10388736;28;20049;-68
2021/10/11 17:14:25;;;;;;;12.77;4.10;;;;;;;10.74;59.75;100769.53;10388016;28;20569;-68
2021/10/11 17:19:27;;;;;;;15.85;5.28;;;;;;;10.60;60.00;100769.31;10388144;28;20060;-71
2021/10/11 17:24:29;;;;;;;16.50;5.05;;;;;;;10.47;60.37;100775.13;10386765;28;20136;-71
2021/10/11 17:29:31;;;;;;;12.90;5.70;;;;;;;10.37;61.04;100765.16;10387724;28;20060;-70
2021/10/11 17:34:33;;;;;;;14.73;5.63;;;;;;;10.21;61.52;100777.22;10387944;28;20569;-71
2021/10/11 17:39:35;;;;;;;13.50;5.93;;;;;;;10.15;61.90;100773.13;10386828;28;20049;-70
2021/10/11 17:44:36;;;;;;;13.95;5.40;;;;;;;10.06;61.83;100780.50;10386485;28;20056;-70
2021/10/11 17:49:45;;;;;;;14.80;4.78;;;;;;;9.94;62.09;100776.66;10385659;28;20328;-70
2021/10/11 17:54:46;;;;;;;14.00;4.22;;;;;;;9.87;62.66;100774.41;10386665;28;20058;-69
2021/10/11 17:59:48;;;;;;;12.60;4.15;;;;;;;9.75;63.09;100785.38;10386875;28;20134;-69
2021/10/11 18:04:50;;;;;;;10.40;4.47;;;;;;;9.81;62.97;100774.66;10387193;28;20136;-69
2021/10/11 18:09:51;;;;;;;10.45;3.80;;;;;;;9.85;63.66;100771.00;10386313;28;20049;-68
2021/10/11 18:14:55;;;;;;;17.05;4.47;;;;;;;10.11;63.09;100766.34;10386696;28;20053;-70
2021/10/11 18:19:57;;;;;;;10.32;3.30;;;;;;;10.20;62.79;100778.13;10385986;28;20055;-69
2021/10/11 18:24:59;;;;;;;11.23;3.03;;;;;;;10.34;62.99;100770.50;10386541;28;20539;-69
2021/10/11 18:30:01;;;;;;;13.50;4.05;;;;;;;10.57;62.59;100766.84;10386078;28;20052;-69
2021/10/11 18:35:05;;;;;;;13.35;4.90;;;;;;;10.78;62.29;100773.69;10385730;28;20486;-69
2021/10/11 18:40:10;;;;;;;11.93;3.53;;;;;;;10.89;61.87;100763.56;10385653;28;20485;-69
2021/10/11 18:45:12;;;;;;;14.68;5.57;;;;;;;11.02;61.80;100770.75;10385753;28;20044;-69
2021/10/11 18:50:14;;;;;;;14.35;3.03;;;;;;;11.15;61.63;100765.81;10385038;28;20081;-69
2021/10/11 18:55:19;;;;;;;10.45;2.70;;;;;;;11.27;61.13;100755.56;10384604;28;20042;-70
2021/10/11 19:00:21;;;;;;;9.63;2.65;;;;;;;11.30;61.11;100765.88;10383703;28;20571;-69
2021/10/11 19:05:23;;;;;;;14.75;2.70;;;;;;;11.32;61.22;100767.59;10382852;28;20053;-69
2021/10/11 19:10:25;;;;;;;11.68;3.00;;;;;;;11.40;60.84;100762.81;10385232;28;20211;-60
2021/10/11 19:15:26;;;;;;;14.35;2.90;;;;;;;11.42;60.73;100758.34;10385294;28;20140;-60
2021/10/11 19:20:28;;;;;;;17.45;3.05;;;;;;;11.37;60.87;100761.19;10385007;28;20062;-61
2021/10/11 19:25:30;;;;;;;15.90;2.90;;;;;;;11.42;61.09;100760.97;10385312;28;20053;-61
2021/10/11 19:30:32;;;;;;;14.27;3.35;;;;;;;11.50;61.35;100753.59;10384098;28;20053;-60
2021/10/11 19:35:34;;;;;;;12.20;3.15;;;;;;;11.45;61.68;100755.56;10385711;28;20064;-60
2021/10/11 19:40:38;;;;;;;15.30;2.75;;;;;;;11.45;61.92;100751.19;10391959;28;20219;-61
2021/10/11 19:45:41;;;;;;;11.13;2.78;;;;;;;11.36;61.92;100737.72;10392957;28;20041;-61
2021/10/11 19:50:43;;;;;;;12.50;3.40;;;;;;;11.18;62.36;100739.47;10391930;28;20251;-61
2021/10/11 19:55:46;;;;;;;13.80;3.30;;;;;;;11.13;62.36;100739.69;10386576;28;20144;-61
2021/10/11 20:00:49;;;;;;;19.98;3.85;;;;;;;11.11;62.61;100733.66;10387094;28;20110;-61
2021/10/11 20:05:52;;;;;;;17.02;3.35;;;;;;;11.17;62.35;100732.53;10383129;28;20132;-60
2021/10/11 20:10:53;;;;;;;15.32;4.30;;;;;;;11.21;62.24;100734.91;10381279;28;20041;-60
2021/10/11 20:15:57;;;;;;;15.25;4.82;;;;;;;11.28;62.28;100741.56;10380954;28;20057;-60
2021/10/11 20:20:59;;;;;;;16.10;5.88;;;;;;;11.26;62.32;100739.94;10386274;28;20140;-61
2021/10/11 20:26:01;;;;;;;17.50;4.05;;;;;;;11.22;62.39;100739.25;10388442;28;20049;-61
2021/10/11 20:31:02;;;;;;;13.55;4.32;;;;;;;11.18;62.53;100737.69;10385799;28;20076;-61
2021/10/11 20:36:04;;;;;;;14.05;3.53;;;;;;;11.21;62.25;100734.91;10388293;28;20417;-60
2021/10/11 20:41:06;;;;;;;13.25;3.40;;;;;;;11.17;62.22;100733.38;10387304;28;20409;-60
2021/10/11 20:46:09;;;;;;;11.15;3.00;;;;;;;11.16;62.19;100723.84;10388217;28;20224;-59
2021/10/11 20:51:11;;;;;;;8.05;2.80;;;;;;;11.14;62.10;100720.44;10386469;28;20049;-59
2021/10/11 20:56:13;;;;;;;8.30;3.03;;;;;;;11.11;62.20;100725.00;10384904;28;20049;-61
2021/10/11 21:01:15;;;;;;;14.43;3.30;;;;;;;11.07;62.21;100713.81;10388112;28;20133;-61
2021/10/11 21:06:17;;;;;;;11.88;3.05;;;;;;;11.09;62.09;100711.97;10386551;28;20041;-61
2021/10/11 21:11:36;;;;;;;14.70;3.22;;;;;;;10.96;62.33;100713.47;10387433;28;20477;-61
2021/10/11 21:16:38;;;;;;;15.00;3.20;;;;;;;10.91;62.50;100719.84;10387250;28;20083;-61
2021/10/11 21:21:40;;;;;;;13.38;3.13;;;;;;;10.85;62.84;100715.75;10387431;28;20139;-61
2021/10/11 21:26:41;;;;;;;13.98;3.45;;;;;;;10.85;62.74;100707.91;10387068;28;20410;-61
2021/10/11 21:31:43;;;;;;;13.40;3.20;;;;;;;10.72;63.08;100709.44;10387658;28;20414;-61
2021/10/11 21:36:45;;;;;;;11.05;3.10;;;;;;;10.66;63.07;100714.09;10385240;28;20053;-61
2021/10/11 21:41:46;;;;;;;14.10;3.55;;;;;;;10.55;63.43;100732.91;10387740;28;20049;-61
2021/10/11 21:46:48;;;;;;;16.70;3.95;;;;;;;10.49;63.47;100734.06;10387357;28;20477;-61
2021/10/11 21:51:50;;;;;;;15.30;3.85;;;;;;;10.34;64.02;100734.75;10387162;28;20053;-61
2021/10/11 21:56:52;;;;;;;12.02;3.70;;;;;;;10.33;64.03;100733.06;10385800;28;20133;-61
2021/10/11 22:01:54;;;;;;;17.25;4.57;;;;;;;10.31;64.21;100731.44;10377453;28;20434;-61
2021/10/11 22:06:56;;;;;;;12.77;3.70;;;;;;;10.31;64.26;100723.59;10384685;28;20089;-61
2021/10/11 22:11:58;;;;;;;11.10;4.05;;;;;;;10.30;64.02;100729.72;10386128;28;20390;-61
2021/10/11 22:16:59;;;;;;;16.35;4.03;;;;;;;10.28;64.16;100721.09;10380639;28;20569;-61
2021/10/11 22:22:02;;;;;;;11.10;3.92;;;;;;;10.32;64.20;100731.34;10385546;28;20064;-61
2021/10/11 22:27:04;;;;;;;15.15;4.38;;;;;;;10.32;64.26;100727.88;10385509;28;20049;-61
2021/10/11 22:32:05;;;;;;;16.85;5.50;;;;;;;10.30;64.42;100724.50;10385609;28;20560;-61
2021/10/11 22:37:07;;;;;;;14.15;5.47;;;;;;;10.25;64.39;100722.13;10382416;28;20071;-61
2021/10/11 22:42:09;;;;;;;11.90;5.22;;;;;;;10.20;64.52;100718.00;10384755;28;20059;-61
2021/10/11 22:47:11;;;;;;;15.45;5.80;;;;;;;10.23;64.76;100720.47;10382451;28;20409;-61
2021/10/11 22:52:21;;;;;;;11.30;5.13;;;;;;;10.31;64.52;100710.53;10383942;28;20052;-61
2021/10/11 22:57:23;;;;;;;14.80;5.20;;;;;;;10.33;64.48;100706.06;10381883;28;20041;-61
2021/10/11 23:02:24;;;;;;;14.18;5.45;;;;;;;10.39;64.05;100711.00;10383571;28;20052;-61
2021/10/11 23:07:26;;;;;;;12.85;5.88;;;;;;;10.42;64.13;100716.06;10383347;28;20045;-61
2021/10/11 23:12:28;;;;;;;16.40;5.78;;;;;;;10.42;64.04;100713.47;10384880;28;20064;-61
2021/10/11 23:17:30;;;;;;;12.40;4.85;;;;;;;10.50;64.00;100713.97;10391178;28;20319;-60
2021/10/11 23:22:32;;;;;;;17.30;5.68;;;;;;;10.58;63.89;100711.84;10391669;28;20043;-61
2021/10/11 23:27:33;;;;;;;15.18;5.32;;;;;;;10.63;63.73;100699.38;10390226;28;20060;-61
2021/10/11 23:32:36;;;;;;;15.65;5.25;;;;;;;10.61;63.62;100701.22;10389710;28;20416;-61
2021/10/11 23:37:38;;;;;;;11.98;5.43;;;;;;;10.52;63.87;100690.38;10390130;28;20053;-61
2021/10/11 23:42:44;;;;;;;12.00;4.45;;;;;;;10.48;63.80;100689.66;10390867;28;20054;-61
2021/10/11 23:47:45;;;;;;;15.05;5.38;;;;;;;10.40;64.05;100692.63;10390818;28;20045;-61
2021/10/11 23:52:48;;;;;;;13.63;5.82;;;;;;;10.31;64.18;100697.44;10390467;28;20046;-61
2021/10/11 23:57:49;;;;;;;17.25;6.00;;;;;;;10.22;64.53;100687.41;10389397;28;20315;-61
